1939 Tropical Low NOT_NAMED (1939009S16119)


IBTrACS version v04r00. Visit IBTrACS website for data access.
Please direct all questions to the IBTrACS Q and A forum

Storm track - Intensity - Wind Radii - Intensity Data - Source Data - All data

Summary Information

Storm ID 1939009S16119
Start Jan 8 23Z
Landfall Jan 11 15Z
Max Intensity 954 mb (Jan 11 08Z)
End Jan 13 01Z
ATCF IDs
Track status Best track data.

Storm track plot

Map of storm track

Intensity plots

Map of storm track

Radial wind information

No radial wind information for this storm


Position and Intensity Table

BASIN ISO_TIME_________ NATURE LAT LON WMO PRES BOM PRES
degrees north degrees east mb mb
SI 1939-01-08 23:00:00 NR -15.80 119.10
SI 1939-01-09 00:00:00 NR -15.85 119.11
SI 01:00:00 NR -15.43 118.92
SI 03:00:00 NR -15.41 118.85
SI 06:00:00 NR -15.47 118.75
SI 09:00:00 NR -15.60 118.66
SI 11:00:00 NR -15.76 118.65
SI 12:00:00 NR -15.84 118.64
SI 15:00:00 NR -16.08 118.61
SI 18:00:00 NR -16.33 118.58
SI 21:00:00 NR -16.61 118.54
SI 23:00:00 NR -16.81 118.51
SI 1939-01-10 00:00:00 NR -16.92 118.49
SI 01:00:00 NR -17.03 118.47
SI 03:00:00 NR -17.27 118.43
SI 06:00:00 NR -17.64 118.36
SI 09:00:00 NR -18.01 118.29
SI 11:00:00 NR -18.25 118.24
SI 12:00:00 NR -18.35 118.22
SI 15:00:00 NR -18.65 118.17
SI 18:00:00 NR -18.92 118.13
SI 21:00:00 NR -19.19 118.08
SI 23:00:00 NR -19.38 118.04
SI 1939-01-11 00:00:00 NR -19.47 118.01
SI 01:00:00 NR -19.57 117.97
SI 03:00:00 NR -19.75 117.90
SI 06:00:00 NR -20.03 117.80
SI 08:00:00 NR -20.24 117.76 954 954
SI 09:00:00 NR -20.35 117.74
SI 11:00:00 NR -20.59 117.72
SI 12:00:00 NR -20.71 117.72
SI 15:00:00 NR -21.09 117.75
SI 18:00:00 NR -21.51 117.87
SI 21:00:00 NR -21.99 118.10
SI 23:00:00 NR -22.34 118.33
SI 1939-01-12 00:00:00 NR -22.54 118.47
SI 01:00:00 NR -22.74 118.62
SI 03:00:00 NR -23.17 118.97
SI 06:00:00 NR -23.85 119.61
SI 09:00:00 NR -24.54 120.36
SI 11:00:00 NR -24.99 120.91
SI 12:00:00 NR -25.21 121.19
SI 15:00:00 NR -25.84 122.08
SI 18:00:00 NR -26.35 122.99
SI 21:00:00 NR -26.85 123.90
SI 23:00:00 NR -27.20 124.50
SI 1939-01-13 00:00:00 NR -27.25 124.68
SI 01:00:00 NR -27.50 125.00

Source Information

Agency Information
USA
TOKYO
CMA
HKO
NEWDELHI
REUNION
BOM IDCKMSTM0S.csv:Line=971:unnamed
NADI
WELLINGTON
DS824
TD9636 cons_worldwide_trop_cyclone_18710101-19891231-006:Line=2194
TD9635
NEUMANN
MLC

All available IBTrACS Data

SEASON BASIN SUBBASIN ISO_TIME_________ NATURE LAT LON WMO PRES WMO AGENCY DIST2LAND LANDFALL IFLAG USA SSHS BOM LAT BOM LON BOM PRES BOM PRES_METHOD TD9636 LAT TD9636 LON TD9636 STAGE STORM SPEED STORM DIR
Year degrees north degrees east mb km km 1 degrees north degrees east mb degrees north degrees east kts degrees
1939 SI WA 1939-01-08 23:00:00 NR -15.80 119.10 370 365 __________O___ -1 -15.80 119.10 7 3 161
1939 SI WA 1939-01-09 00:00:00 NR -15.85 119.11 365 365 __________P___ -1 -15.85 119.11 7 12 334
1939 SI WA 01:00:00 NR -15.43 118.92 bom 409 409 ______O___P___ -1 -14.00 118.30 -15.91 119.12 7 10 330
1939 SI WA 03:00:00 NR -15.41 118.85 419 414 ______P___P___ -1 -14.22 118.26 -16.01 119.14 7 2 255
1939 SI WA 06:00:00 NR -15.47 118.75 414 414 ______P___P___ -1 -14.55 118.19 -16.16 119.17 7 3 224
1939 SI WA 09:00:00 NR -15.60 118.66 419 413 ______P___P___ -1 -14.89 118.13 -16.31 119.19 7 4 199
1939 SI WA 11:00:00 NR -15.76 118.65 418 418 ______P___O___ -1 -15.11 118.10 -16.40 119.20 7 5 185
1939 SI WA 12:00:00 NR -15.84 118.64 418 406 ______P___P___ -1 -15.23 118.08 -16.44 119.20 7 5 185
1939 SI WA 15:00:00 NR -16.08 118.61 406 399 ______P___P___ -1 -15.59 118.02 -16.57 119.20 7 5 187
1939 SI WA 18:00:00 NR -16.33 118.58 399 391 ______P___P___ -1 -15.96 117.98 -16.71 119.19 7 5 187
1939 SI WA 21:00:00 NR -16.61 118.54 396 374 ______P___P___ -1 -16.35 117.94 -16.87 119.14 7 6 188
1939 SI WA 23:00:00 NR -16.81 118.51 374 363 ______P___O___ -1 -16.62 117.92 -17.00 119.10 7 6 190
1939 SI WA 1939-01-10 00:00:00 NR -16.92 118.49 363 352 ______P___P___ -1 -16.76 117.91 -17.08 119.07 7 7 192
1939 SI WA 01:00:00 NR -17.03 118.47 bom 352 332 ______O___P___ -1 -16.90 117.90 -17.16 119.04 7 7 188
1939 SI WA 03:00:00 NR -17.27 118.43 321 289 ______P___P___ -1 -17.19 117.89 -17.34 118.97 7 7 191
1939 SI WA 06:00:00 NR -17.64 118.36 289 249 ______P___P___ -1 -17.64 117.88 -17.63 118.84 7 8 191
1939 SI WA 09:00:00 NR -18.01 118.29 249 228 ______P___P___ -1 -18.10 117.88 -17.92 118.69 7 7 190
1939 SI WA 11:00:00 NR -18.25 118.24 232 222 ______P___O___ -1 -18.40 117.88 -18.10 118.60 7 7 188
1939 SI WA 12:00:00 NR -18.35 118.22 212 192 ______P___P___ -1 -18.54 117.88 -18.16 118.56 7 6 189
1939 SI WA 15:00:00 NR -18.65 118.17 192 167 ______P___P___ -1 -18.96 117.90 -18.34 118.45 7 6 189
1939 SI WA 18:00:00 NR -18.92 118.13 167 134 ______P___P___ -1 -19.34 117.92 -18.51 118.33 7 6 190
1939 SI WA 21:00:00 NR -19.19 118.08 134 112 ______P___P___ -1 -19.67 117.95 -18.72 118.20 7 6 191
1939 SI WA 23:00:00 NR -19.38 118.04 112 101 ______P___O___ -1 -19.85 117.97 -18.90 118.10 7 6 194
1939 SI WA 1939-01-11 00:00:00 NR -19.47 118.01 101 90 ______P___P___ -1 -19.93 117.99 -19.01 118.03 7 6 196
1939 SI WA 01:00:00 NR -19.57 117.97 bom 90 81 ______O___P___ -1 -20.00 118.00 -19.13 117.95 7 6 199
1939 SI WA 03:00:00 NR -19.75 117.90 81 54 ______P___P___ -1 -20.09 118.02 -19.40 117.78 7 6 199
1939 SI WA 06:00:00 NR -20.03 117.80 54 35 ______P___P___ -1 -20.21 118.06 -19.85 117.54 7 6 195
1939 SI WA 08:00:00 NR -20.24 117.76 954 bom 35 24 ______O___P___ -1 -20.30 118.10 954 4 -20.18 117.41 7 7 190
1939 SI WA 09:00:00 NR -20.35 117.74 23 15 ______P___P___ -1 -20.36 118.11 -20.35 117.36 7 7 187
1939 SI WA 11:00:00 NR -20.59 117.72 15 10 ______P___O___ -1 -20.49 118.15 -20.70 117.30 7 7 0
1939 SI WA 12:00:00 NR -20.71 117.72 10 0 ______P___P___ -1 -20.56 118.17 -20.86 117.27 7 7 176
1939 SI WA 15:00:00 NR -21.09 117.75 0 0 ______P___P___ -1 -20.82 118.25 -21.36 117.26 7 8 170
1939 SI WA 18:00:00 NR -21.51 117.87 0 0 ______P___P___ -1 -21.13 118.38 -21.89 117.37 7 10 160
1939 SI WA 21:00:00 NR -21.99 118.10 0 0 ______P___P___ -1 -21.50 118.58 -22.48 117.63 7 11 153
1939 SI WA 23:00:00 NR -22.34 118.33 0 0 ______P___O___ -1 -21.79 118.77 -22.90 117.90 7 13 149
1939 SI WA 1939-01-12 00:00:00 NR -22.54 118.47 0 0 ______P___P___ -1 -21.94 118.88 -23.14 118.06 7 14 147
1939 SI WA 01:00:00 NR -22.74 118.62 bom 0 0 ______O___P___ -1 -22.10 119.00 -23.38 118.23 7 16 144
1939 SI WA 03:00:00 NR -23.17 118.97 0 0 ______P___P___ -1 -22.45 119.29 -23.90 118.65 7 17 141
1939 SI WA 06:00:00 NR -23.85 119.61 0 0 ______P___P___ -1 -23.02 119.82 -24.68 119.41 7 19 137
1939 SI WA 09:00:00 NR -24.54 120.36 0 0 ______P___P___ -1 -23.64 120.45 -25.44 120.28 7 20 134
1939 SI WA 11:00:00 NR -24.99 120.91 0 0 ______P___O___ -1 -24.09 120.92 -25.90 120.90 7 20 132
1939 SI WA 12:00:00 NR -25.21 121.19 0 0 ______P___P___ -1 -24.32 121.17 -26.11 121.22 7 20 129
1939 SI WA 15:00:00 NR -25.84 122.08 0 0 ______P___P___ -1 -25.02 121.97 -26.67 122.19 7 20 125
1939 SI WA 18:00:00 NR -26.35 122.99 0 0 ______P___P___ -1 -25.75 122.83 -27.13 123.19 7 19 122
1939 SI WA 21:00:00 NR -26.85 123.90 0 0 ______P___P___ -1 -26.50 123.74 -27.54 124.21 7 19 122
1939 SI WA 23:00:00 NR -27.20 124.50 0 0 ______P___O___ -1 -27.00 124.36 -27.80 124.90 7 16 120
1939 SI WA 1939-01-13 00:00:00 NR -27.25 124.68 0 0 ______P_______ -1 -27.25 124.68 7 16 124
1939 SI WA 01:00:00 NR -27.50 125.00 bom 0 ______O_______ -1 -27.50 125.00 7 23 131